METAR Data
IDs: Format: Raw Decoded Include TAF

Data at: 1117 UTC 22 Jan 2022

METAR for:KEFD (Houston/Ellington Ar, TX, US)
Text:KEFD 221050Z 01008KT 10SM CLR 00/M06 A3041
Temperature: 0.0°C ( 32°F)
Dewpoint: -6.0°C ( 21°F) [RH = 64%]
Pressure (altimeter):30.41 inches Hg (1029.9 mb)
Winds:from the N (10 degrees) at 9 MPH (8 knots; 4.1 m/s)
Visibility:10 or more sm (16+ km)
Ceiling:at least 12,000 feet AGL
Clouds:sky clear below 12,000 feet AGL

TAF for:KEFD (Houston/Ellington Ar, TX, US) issued at 0400 UTC 22 Jan 2022
Text:TAF KEFD 220400Z 2204/2310 04009KT 9999 SKC QNH3030INS TX09/2222Z TN00/2213Z
Forecast period:0400 UTC 22 January 2022 to 1000 UTC 23 January 2022
Forecast type:FROM: standard forecast or significant change
Winds:from the NE (40 degrees) at 10 MPH (9 knots; 4.6 m/s)
Visibility:6 or more sm (10+ km)
Ceiling:at least 12,000 feet AGL
Clouds:clear skies